Time;durP1;ratioP1;P1;durP2;ratioP2;P2;SDS_P1;SDS_P2;PMS_P1;PMS_P2;Temp;Humidity;BMP_temperature;BMP_pressure;BME280_temperature;BME280_humidity;BME280_pressure;Samples;Min_cycle;Max_cycle;Signal;HPM_P1;HPM_P2
2023/03/29 00:02:20;;;;;;;;;;;16.80;40.60;;;;;;5069373;28;19920;-71
2023/03/29 00:04:45;;;;;;;;;;;16.70;40.60;;;;;;5070139;28;19921;-71
2023/03/29 00:07:12;;;;;;;;;;;16.70;40.70;;;;;;5071095;28;19920;-71
2023/03/29 00:09:38;;;;;;;;;;;16.70;40.80;;;;;;5071409;28;19921;-71
2023/03/29 00:12:04;;;;;;;;;;;16.60;40.70;;;;;;5070199;28;19924;-71
2023/03/29 00:14:29;;;;;;;;;;;16.60;40.80;;;;;;5070052;28;19921;-71
2023/03/29 00:16:55;;;;;;;;;;;16.60;40.80;;;;;;5070605;28;19959;-71
2023/03/29 00:19:21;;;;;;;;;;;16.60;40.80;;;;;;5071220;28;19955;-72
2023/03/29 00:21:46;;;;;;;;;;;16.60;40.90;;;;;;5070731;28;20383;-71
2023/03/29 00:24:12;;;;;;;;;;;16.60;40.90;;;;;;5070420;28;20221;-71
2023/03/29 00:26:37;;;;;;;;;;;16.50;41.00;;;;;;5070633;28;19920;-71
2023/03/29 00:29:03;;;;;;;;;;;16.50;41.00;;;;;;5070415;28;20395;-71
2023/03/29 00:31:28;;;;;;;;;;;16.50;41.10;;;;;;5070497;28;19925;-71
2023/03/29 00:33:54;;;;;;;;;;;16.50;41.10;;;;;;5074488;28;19971;-71
2023/03/29 00:36:21;;;;;;;;;;;16.60;41.20;;;;;;5074569;28;19927;-71
2023/03/29 00:38:46;;;;;;;;;;;16.50;41.20;;;;;;5075235;28;19962;-71
2023/03/29 00:41:12;;;;;;;;;;;16.40;41.10;;;;;;5074711;28;20235;-71
2023/03/29 00:43:57;;;;;;;;;;;16.40;41.30;;;;;;5073515;28;20301;-71
2023/03/29 00:46:23;;;;;;;;;;;16.40;41.30;;;;;;5073144;28;19920;-71
2023/03/29 00:48:51;;;;;;;;;;;16.40;41.30;;;;;;5073063;28;19921;-71
2023/03/29 00:51:17;;;;;;;;;;;16.40;41.30;;;;;;5072931;28;20253;-71
2023/03/29 00:53:47;;;;;;;;;;;16.40;41.40;;;;;;5073149;28;19920;-71
2023/03/29 00:56:17;;;;;;;;;;;16.40;41.40;;;;;;5073387;28;20398;-71
2023/03/29 00:58:46;;;;;;;;;;;16.40;41.30;;;;;;5073556;28;20300;-71
2023/03/29 01:01:18;;;;;;;;;;;16.60;41.20;;;;;;5073247;28;19920;-71
2023/03/29 01:03:46;;;;;;;;;;;16.90;41.00;;;;;;5073089;28;19927;-71
2023/03/29 01:06:13;;;;;;;;;;;17.10;40.60;;;;;;5073400;28;19931;-71
2023/03/29 01:08:42;;;;;;;;;;;17.50;40.20;;;;;;5074155;28;19978;-71
2023/03/29 01:11:11;;;;;;;;;;;17.90;39.70;;;;;;5072665;28;20439;-71
2023/03/29 01:13:39;;;;;;;;;;;18.50;39.10;;;;;;5074516;28;19921;-71
2023/03/29 01:16:06;;;;;;;;;;;19.00;38.20;;;;;;5073205;28;20019;-72
2023/03/29 01:18:32;;;;;;;;;;;19.60;37.50;;;;;;5072701;28;19966;-71
2023/03/29 01:23:53;;;;;;;;;;;20.50;36.30;;;;;;5109119;27;19912;-71
2023/03/29 01:29:11;;;;;;;;;;;21.20;35.10;;;;;;5108732;27;19912;-71
2023/03/29 01:31:40;;;;;;;;;;;21.60;34.80;;;;;;5108518;28;19920;-71
2023/03/29 01:34:09;;;;;;;;;;;21.70;34.40;;;;;;5107952;28;19920;-71
2023/03/29 01:36:38;;;;;;;;;;;22.00;34.20;;;;;;5109674;28;20302;-71
2023/03/29 01:39:05;;;;;;;;;;;22.10;33.80;;;;;;5108538;28;19924;-71
2023/03/29 01:41:41;;;;;;;;;;;22.30;33.60;;;;;;5108565;28;19920;-71
2023/03/29 01:44:25;;;;;;;;;;;22.40;33.60;;;;;;5108340;28;19925;-71
2023/03/29 01:46:54;;;;;;;;;;;22.50;33.20;;;;;;5107357;28;19965;-71
2023/03/29 01:49:24;;;;;;;;;;;22.60;33.10;;;;;;5107445;28;19920;-71
2023/03/29 01:52:00;;;;;;;;;;;22.60;32.90;;;;;;5108727;28;19920;-71
2023/03/29 01:57:09;;;;;;;;;;;22.70;32.70;;;;;;5109852;27;19912;-71
2023/03/29 01:59:37;;;;;;;;;;;22.70;32.70;;;;;;5108412;28;20329;-72
2023/03/29 02:02:04;;;;;;;;;;;22.70;32.70;;;;;;5108816;28;19927;-71
2023/03/29 02:04:33;;;;;;;;;;;22.60;32.80;;;;;;5108267;28;20018;-71
2023/03/29 02:07:00;;;;;;;;;;;22.60;32.90;;;;;;5107721;28;20396;-71
2023/03/29 02:09:27;;;;;;;;;;;22.50;32.70;;;;;;5107737;28;20336;-71
2023/03/29 02:11:54;;;;;;;;;;;22.30;32.70;;;;;;5107843;28;20123;-71
2023/03/29 02:14:20;;;;;;;;;;;22.30;33.00;;;;;;5107528;28;19920;-71
2023/03/29 02:16:46;;;;;;;;;;;22.20;33.10;;;;;;5109323;28;19931;-71
2023/03/29 02:19:12;;;;;;;;;;;22.10;33.20;;;;;;5108054;28;19955;-71
2023/03/29 02:24:18;;;;;;;;;;;21.90;33.30;;;;;;5109886;27;19940;-71
2023/03/29 02:26:44;;;;;;;;;;;21.80;33.50;;;;;;5108185;28;20298;-71
2023/03/29 02:29:10;;;;;;;;;;;21.80;33.60;;;;;;5107252;28;19926;-71
2023/03/29 02:36:59;;;;;;;;;;;21.70;33.80;;;;;;5089279;28;19919;-71
2023/03/29 02:39:27;;;;;;;;;;;21.70;33.70;;;;;;5088390;28;20332;-71
2023/03/29 02:41:53;;;;;;;;;;;21.80;33.70;;;;;;5087888;28;19920;-71
2023/03/29 02:44:21;;;;;;;;;;;21.80;33.70;;;;;;5089426;28;20290;-71
2023/03/29 02:46:48;;;;;;;;;;;21.90;33.50;;;;;;5087779;28;20007;-71
2023/03/29 02:49:14;;;;;;;;;;;21.90;33.50;;;;;;5086753;28;19977;-71
2023/03/29 02:51:39;;;;;;;;;;;22.00;33.40;;;;;;5087211;28;19924;-71
2023/03/29 02:54:10;;;;;;;;;;;22.00;33.30;;;;;;5086893;28;19920;-71
2023/03/29 02:56:43;;;;;;;;;;;22.10;33.30;;;;;;5088268;28;19947;-71
2023/03/29 02:59:10;;;;;;;;;;;22.10;33.30;;;;;;5087159;28;19924;-72
2023/03/29 03:01:37;;;;;;;;;;;22.10;33.30;;;;;;5104442;28;19920;-71
2023/03/29 03:04:02;;;;;;;;;;;22.10;33.30;;;;;;5087357;28;19920;-71
2023/03/29 03:06:28;;;;;;;;;;;22.10;33.30;;;;;;5087015;28;19921;-71
2023/03/29 03:08:54;;;;;;;;;;;22.10;33.30;;;;;;5087468;28;20003;-71
2023/03/29 03:11:20;;;;;;;;;;;22.00;33.30;;;;;;5087786;28;20023;-72
2023/03/29 03:13:45;;;;;;;;;;;22.00;33.40;;;;;;5088275;28;19920;-71
2023/03/29 03:16:11;;;;;;;;;;;22.00;33.50;;;;;;5086977;28;19947;-71
2023/03/29 03:18:37;;;;;;;;;;;21.90;33.50;;;;;;5088737;28;19920;-71
2023/03/29 03:21:03;;;;;;;;;;;21.80;33.50;;;;;;5087350;28;19947;-72
2023/03/29 03:23:29;;;;;;;;;;;21.80;33.60;;;;;;5087454;28;19920;-71
2023/03/29 03:25:55;;;;;;;;;;;21.70;33.60;;;;;;5088628;28;19920;-71
2023/03/29 03:28:21;;;;;;;;;;;21.70;33.70;;;;;;5088361;28;19943;-76
2023/03/29 03:30:46;;;;;;;;;;;21.70;33.70;;;;;;5086186;28;19963;-71
2023/03/29 03:33:12;;;;;;;;;;;21.70;33.80;;;;;;5086429;28;20466;-71
2023/03/29 03:35:38;;;;;;;;;;;21.70;33.80;;;;;;5102810;28;20257;-71
2023/03/29 03:38:04;;;;;;;;;;;21.70;33.80;;;;;;5086659;28;20015;-71
2023/03/29 03:40:31;;;;;;;;;;;21.70;33.80;;;;;;5086284;28;19924;-71
2023/03/29 03:42:56;;;;;;;;;;;21.80;33.80;;;;;;5086101;28;20388;-71
2023/03/29 03:45:23;;;;;;;;;;;21.80;33.70;;;;;;5086547;28;19927;-70
2023/03/29 03:47:49;;;;;;;;;;;21.80;33.70;;;;;;5075155;28;19974;-77
2023/03/29 03:50:15;;;;;;;;;;;21.80;33.70;;;;;;5073143;28;19920;-71
2023/03/29 03:52:40;;;;;;;;;;;21.90;33.70;;;;;;5073880;28;19928;-71
2023/03/29 03:55:07;;;;;;;;;;;21.90;33.70;;;;;;5072560;28;20372;-77
2023/03/29 03:57:36;;;;;;;;;;;21.90;33.60;;;;;;5074075;28;19982;-71
2023/03/29 04:00:17;;;;;;;;;;;21.80;33.50;;;;;;5072591;28;19927;-71
2023/03/29 04:02:42;;;;;;;;;;;21.90;33.60;;;;;;5072918;28;19920;-71
2023/03/29 04:05:08;;;;;;;;;;;21.90;33.70;;;;;;5073860;28;20516;-71
2023/03/29 04:07:34;;;;;;;;;;;21.90;33.70;;;;;;5072998;28;19921;-71
2023/03/29 04:10:00;;;;;;;;;;;21.90;33.60;;;;;;5072849;28;19920;-72
2023/03/29 04:12:25;;;;;;;;;;;21.90;33.70;;;;;;5072429;28;20295;-77
2023/03/29 04:14:51;;;;;;;;;;;21.90;33.60;;;;;;5073009;28;19950;-77
2023/03/29 04:17:16;;;;;;;;;;;21.90;33.60;;;;;;5071756;28;20019;-72
2023/03/29 04:19:42;;;;;;;;;;;21.90;33.60;;;;;;5071844;28;19924;-71
2023/03/29 04:22:08;;;;;;;;;;;21.90;33.60;;;;;;5072106;28;19956;-72
2023/03/29 04:24:33;;;;;;;;;;;21.90;33.60;;;;;;5072113;28;20023;-71
2023/03/29 04:26:59;;;;;;;;;;;22.00;33.60;;;;;;5073907;28;19924;-71
2023/03/29 04:29:24;;;;;;;;;;;22.00;34.40;;;;;;5072572;28;20434;-71
2023/03/29 04:31:50;;;;;;;;;;;22.00;33.50;;;;;;5072543;28;19920;-71
2023/03/29 04:34:15;;;;;;;;;;;22.00;33.50;;;;;;5071970;28;20015;-71
2023/03/29 04:36:42;;;;;;;;;;;22.00;33.40;;;;;;5071552;28;20015;-72
2023/03/29 04:39:08;;;;;;;;;;;22.00;33.80;;;;;;5072083;28;20007;-71
2023/03/29 04:41:33;;;;;;;;;;;22.00;33.50;;;;;;5071582;28;20455;-71
2023/03/29 04:43:59;;;;;;;;;;;22.00;33.40;;;;;;5073201;28;19935;-71
2023/03/29 04:46:25;;;;;;;;;;;22.00;33.50;;;;;;5073267;28;19920;-71
2023/03/29 04:48:51;;;;;;;;;;;22.00;33.40;;;;;;5072206;28;20361;-77
2023/03/29 04:51:16;;;;;;;;;;;22.00;33.50;;;;;;5071996;28;19920;-71
2023/03/29 04:53:42;;;;;;;;;;;22.00;33.40;;;;;;5072686;28;20007;-71
2023/03/29 04:56:07;;;;;;;;;;;22.00;33.50;;;;;;5072205;28;19924;-71
2023/03/29 04:58:33;;;;;;;;;;;22.00;33.50;;;;;;5069846;28;20003;-71
2023/03/29 05:00:58;;;;;;;;;;;22.00;33.40;;;;;;5070954;28;19925;-71
2023/03/29 05:03:25;;;;;;;;;;;22.00;33.40;;;;;;5087675;28;19920;-71
2023/03/29 05:05:50;;;;;;;;;;;22.00;33.40;;;;;;5071083;28;19921;-71
2023/03/29 05:08:16;;;;;;;;;;;22.00;33.50;;;;;;5072704;28;19973;-72
2023/03/29 05:10:42;;;;;;;;;;;21.90;33.50;;;;;;5088552;28;20288;-72
2023/03/29 05:13:08;;;;;;;;;;;21.90;33.50;;;;;;5071545;28;20276;-71
2023/03/29 05:15:34;;;;;;;;;;;22.00;33.60;;;;;;5054709;28;19974;-72
2023/03/29 05:18:02;;;;;;;;;;;22.00;33.50;;;;;;5071434;28;19951;-72
2023/03/29 05:20:28;;;;;;;;;;;22.00;33.50;;;;;;5072293;28;20403;-71
2023/03/29 05:22:54;;;;;;;;;;;22.00;33.50;;;;;;5071691;28;20283;-71
2023/03/29 05:25:20;;;;;;;;;;;22.00;33.50;;;;;;5070884;28;20244;-72
2023/03/29 05:27:46;;;;;;;;;;;22.00;33.40;;;;;;5070986;28;19920;-72
2023/03/29 05:30:14;;;;;;;;;;;22.00;33.40;;;;;;5070992;28;19920;-69
2023/03/29 05:32:40;;;;;;;;;;;22.00;33.90;;;;;;5069058;28;19924;-68
2023/03/29 05:35:06;;;;;;;;;;;21.90;34.00;;;;;;5079575;28;20380;-72
2023/03/29 05:37:33;;;;;;;;;;;21.90;34.20;;;;;;5069122;28;20255;-72
2023/03/29 05:39:59;;;;;;;;;;;21.80;34.50;;;;;;5067435;28;19920;-72
2023/03/29 05:42:25;;;;;;;;;;;21.70;34.70;;;;;;5067300;28;20419;-68
2023/03/29 05:44:50;;;;;;;;;;;21.50;34.80;;;;;;5066830;28;19920;-72
2023/03/29 05:47:16;;;;;;;;;;;21.60;35.10;;;;;;5063740;28;20304;-76
2023/03/29 05:49:41;;;;;;;;;;;21.70;35.30;;;;;;5059971;28;19931;-76
2023/03/29 05:52:07;;;;;;;;;;;21.80;35.00;;;;;;5059480;28;19927;-76
2023/03/29 05:54:32;;;;;;;;;;;22.10;35.00;;;;;;5058419;28;20314;-76
2023/03/29 05:56:58;;;;;;;;;;;22.30;34.60;;;;;;5064889;28;19927;-76
2023/03/29 05:59:23;;;;;;;;;;;22.40;34.60;;;;;;5059785;28;19924;-76
2023/03/29 06:01:49;;;;;;;;;;;22.50;34.50;;;;;;5059446;28;19931;-76
2023/03/29 06:04:14;;;;;;;;;;;22.60;34.20;;;;;;5062358;28;19970;-76
2023/03/29 06:06:40;;;;;;;;;;;22.60;34.40;;;;;;5062621;28;19981;-76
2023/03/29 06:09:06;;;;;;;;;;;22.60;34.40;;;;;;5061468;28;19920;-72
2023/03/29 06:11:32;;;;;;;;;;;22.60;34.50;;;;;;5059673;28;20477;-73
2023/03/29 06:13:57;;;;;;;;;;;22.50;34.70;;;;;;5066415;28;20017;-74
2023/03/29 06:16:24;;;;;;;;;;;22.20;34.80;;;;;;5065219;28;19936;-74
2023/03/29 06:18:49;;;;;;;;;;;22.20;34.90;;;;;;5046873;28;19924;-75
2023/03/29 06:21:15;;;;;;;;;;;22.10;35.10;;;;;;5035225;28;20387;-73
2023/03/29 06:23:41;;;;;;;;;;;22.10;35.30;;;;;;5047280;28;19925;-73
2023/03/29 06:26:06;;;;;;;;;;;22.00;35.50;;;;;;5050038;28;19927;-67
2023/03/29 06:28:32;;;;;;;;;;;22.00;35.60;;;;;;5042216;28;19932;-67
2023/03/29 06:31:00;;;;;;;;;;;22.10;36.10;;;;;;5050040;28;19925;-67
2023/03/29 06:33:27;;;;;;;;;;;22.00;36.20;;;;;;5051325;28;20080;-72
2023/03/29 06:35:53;;;;;;;;;;;21.90;36.20;;;;;;5054741;28;19936;-72
2023/03/29 06:38:19;;;;;;;;;;;21.90;36.50;;;;;;5054938;28;19924;-72
2023/03/29 06:40:46;;;;;;;;;;;21.90;36.50;;;;;;5053727;28;20435;-72
2023/03/29 06:43:11;;;;;;;;;;;21.80;36.50;;;;;;5054079;28;19942;-70
2023/03/29 06:45:37;;;;;;;;;;;21.80;36.50;;;;;;5052514;28;20516;-72
2023/03/29 06:48:03;;;;;;;;;;;21.80;36.70;;;;;;5051937;28;20470;-72
2023/03/29 06:50:29;;;;;;;;;;;21.80;36.80;;;;;;5052381;28;20045;-72
2023/03/29 06:52:56;;;;;;;;;;;21.70;36.70;;;;;;5053452;28;20015;-78
2023/03/29 06:55:22;;;;;;;;;;;21.70;36.90;;;;;;5069166;28;20248;-70
2023/03/29 06:57:47;;;;;;;;;;;21.80;36.90;;;;;;5051017;28;20329;-70
2023/03/29 07:00:16;;;;;;;;;;;21.80;37.00;;;;;;5052954;28;19921;-70
2023/03/29 07:02:42;;;;;;;;;;;21.80;37.00;;;;;;5053134;28;19967;-70
2023/03/29 07:05:10;;;;;;;;;;;21.80;37.00;;;;;;5068589;28;19972;-73
2023/03/29 07:07:52;;;;;;;;;;;21.80;37.00;;;;;;5052749;28;19932;-70
2023/03/29 07:10:20;;;;;;;;;;;21.80;37.90;;;;;;5060920;28;19920;-68
2023/03/29 07:12:46;;;;;;;;;;;21.70;37.20;;;;;;5051960;28;19927;-73
2023/03/29 07:15:12;;;;;;;;;;;21.60;37.50;;;;;;5055894;28;19925;-75
2023/03/29 07:17:38;;;;;;;;;;;21.60;37.70;;;;;;5049979;28;19947;-75
2023/03/29 07:20:07;;;;;;;;;;;21.50;37.70;;;;;;5054657;28;19925;-77
2023/03/29 07:22:33;;;;;;;;;;;21.50;37.70;;;;;;5050442;28;19936;-70
2023/03/29 07:24:59;;;;;;;;;;;21.50;37.80;;;;;;5054259;28;19924;-75
2023/03/29 07:27:25;;;;;;;;;;;21.50;37.70;;;;;;5068577;28;19931;-72
2023/03/29 07:29:51;;;;;;;;;;;21.60;37.60;;;;;;5068419;28;20410;-71
2023/03/29 07:32:16;;;;;;;;;;;21.60;37.80;;;;;;5055938;28;20231;-74
2023/03/29 07:34:42;;;;;;;;;;;21.60;37.80;;;;;;5050720;28;19994;-72
2023/03/29 07:37:08;;;;;;;;;;;21.60;37.70;;;;;;5076496;28;19936;-74
2023/03/29 07:39:34;;;;;;;;;;;21.70;37.90;;;;;;5074995;28;19963;-77
2023/03/29 07:41:59;;;;;;;;;;;21.60;38.20;;;;;;5077012;28;19928;-77
2023/03/29 07:44:28;;;;;;;;;;;21.60;38.40;;;;;;5074042;28;19969;-71
2023/03/29 07:46:53;;;;;;;;;;;21.60;38.40;;;;;;5072713;28;20354;-70
2023/03/29 07:49:19;;;;;;;;;;;21.80;38.60;;;;;;5070545;28;19925;-75
2023/03/29 07:51:44;;;;;;;;;;;21.90;38.60;;;;;;5054207;28;20019;-68
2023/03/29 07:54:10;;;;;;;;;;;21.70;38.40;;;;;;5056174;28;19924;-68
2023/03/29 07:56:36;;;;;;;;;;;21.70;38.40;;;;;;5062913;28;19982;-68
2023/03/29 07:59:01;;;;;;;;;;;21.70;38.60;;;;;;5056063;28;19931;-66
2023/03/29 08:01:26;;;;;;;;;;;21.70;38.80;;;;;;5072907;28;20295;-73
2023/03/29 08:03:52;;;;;;;;;;;21.60;38.80;;;;;;5054757;28;19928;-69
2023/03/29 08:06:17;;;;;;;;;;;21.70;39.40;;;;;;5053498;28;20047;-71
2023/03/29 08:08:43;;;;;;;;;;;21.70;39.00;;;;;;5071980;28;19928;-68
2023/03/29 08:11:09;;;;;;;;;;;21.80;39.30;;;;;;5054143;28;20031;-68
2023/03/29 08:13:35;;;;;;;;;;;21.80;38.80;;;;;;5066284;28;20400;-68
2023/03/29 08:16:00;;;;;;;;;;;21.70;38.80;;;;;;5064345;28;20035;-68
2023/03/29 08:18:26;;;;;;;;;;;21.60;38.90;;;;;;5055637;28;19928;-71
2023/03/29 08:20:51;;;;;;;;;;;21.60;39.60;;;;;;5073276;28;19924;-67
2023/03/29 08:23:17;;;;;;;;;;;21.60;39.30;;;;;;5054325;28;19928;-72
2023/03/29 08:25:44;;;;;;;;;;;21.70;39.10;;;;;;5075096;28;19928;-72
2023/03/29 08:28:09;;;;;;;;;;;21.70;38.90;;;;;;5056250;28;19980;-71
2023/03/29 08:30:35;;;;;;;;;;;21.70;38.80;;;;;;5058532;28;19924;-67
2023/03/29 08:33:00;;;;;;;;;;;21.60;38.80;;;;;;5068511;28;20372;-68
2023/03/29 08:35:26;;;;;;;;;;;21.60;39.00;;;;;;5047289;28;19986;-70
2023/03/29 08:37:52;;;;;;;;;;;21.50;39.20;;;;;;5058908;28;19924;-68
2023/03/29 08:40:20;;;;;;;;;;;21.50;39.20;;;;;;5069761;28;19928;-67
2023/03/29 08:45:49;;;;;;;;;;;21.50;39.40;;;;;;5073401;27;19927;-70
2023/03/29 08:48:32;;;;;;;;;;;21.50;39.60;;;;;;5073121;28;20028;-66
2023/03/29 08:51:00;;;;;;;;;;;21.50;39.50;;;;;;5072097;28;19952;-68
2023/03/29 08:53:28;;;;;;;;;;;21.60;39.60;;;;;;5057359;28;20434;-73
2023/03/29 08:55:55;;;;;;;;;;;21.60;39.60;;;;;;5074440;28;19929;-71
2023/03/29 08:58:23;;;;;;;;;;;21.60;39.40;;;;;;5068595;28;20377;-67
2023/03/29 09:06:11;;;;;;;;;;;21.80;39.30;;;;;;5078009;27;19920;-69
2023/03/29 09:08:38;;;;;;;;;;;21.80;39.10;;;;;;5084307;28;19929;-68
2023/03/29 09:14:05;;;;;;;;;;;21.80;39.00;;;;;;5078443;27;19916;-70
2023/03/29 09:16:51;;;;;;;;;;;21.80;39.20;;;;;;5081608;28;20031;-79
2023/03/29 09:19:36;;;;;;;;;;;21.80;39.20;;;;;;5078374;28;19924;-75
2023/03/29 09:22:14;;;;;;;;;;;21.80;39.10;;;;;;5076682;28;19928;-72
2023/03/29 09:25:00;;;;;;;;;;;21.70;39.20;;;;;;5113265;27;19920;-76
2023/03/29 09:27:29;;;;;;;;;;;21.70;39.20;;;;;;5069795;28;19993;-73
2023/03/29 09:30:00;;;;;;;;;;;21.60;39.40;;;;;;5074464;28;20296;-70
2023/03/29 09:32:30;;;;;;;;;;;21.60;39.20;;;;;;5074874;28;19924;-75
2023/03/29 09:35:02;;;;;;;;;;;21.60;39.70;;;;;;5077762;28;19969;-76
2023/03/29 09:37:30;;;;;;;;;;;21.70;39.80;;;;;;5104496;27;19929;-69
2023/03/29 09:39:56;;;;;;;;;;;21.90;40.00;;;;;;5075863;28;20053;-71
2023/03/29 09:42:22;;;;;;;;;;;22.10;39.60;;;;;;5076196;28;20363;-72
2023/03/29 09:44:51;;;;;;;;;;;22.30;39.50;;;;;;5074653;28;20249;-70
2023/03/29 09:47:25;;;;;;;;;;;22.40;39.20;;;;;;5074286;28;20494;-73
2023/03/29 09:49:56;;;;;;;;;;;22.50;39.00;;;;;;5080797;28;19970;-72
2023/03/29 09:52:21;;;;;;;;;;;22.60;38.90;;;;;;5076900;28;19925;-72
2023/03/29 09:54:48;;;;;;;;;;;22.50;38.90;;;;;;5103727;27;20396;-66
2023/03/29 09:57:15;;;;;;;;;;;22.50;38.80;;;;;;5074064;28;19929;-66
2023/03/29 09:59:42;;;;;;;;;;;22.50;39.00;;;;;;5074436;28;19930;-66
2023/03/29 10:02:09;;;;;;;;;;;22.50;38.90;;;;;;5104350;27;19974;-74
2023/03/29 10:04:34;;;;;;;;;;;22.50;38.90;;;;;;5078586;28;19924;-70
2023/03/29 10:07:00;;;;;;;;;;;22.50;38.80;;;;;;5064167;28;20261;-70
2023/03/29 10:09:27;;;;;;;;;;;22.60;38.80;;;;;;5070904;28;19964;-73
2023/03/29 10:11:55;;;;;;;;;;;22.60;38.80;;;;;;5080090;28;20422;-67
2023/03/29 10:14:30;;;;;;;;;;;22.60;38.70;;;;;;5074049;28;20438;-68
2023/03/29 10:16:56;;;;;;;;;;;22.70;38.70;;;;;;5078135;28;19931;-68
2023/03/29 10:22:03;;;;;;;;;;;22.60;38.80;;;;;;5089745;27;19924;-74
2023/03/29 10:24:29;;;;;;;;;;;22.60;39.00;;;;;;5090832;28;20428;-69
2023/03/29 10:26:57;;;;;;;;;;;22.60;38.90;;;;;;5086707;28;20150;-68
2023/03/29 10:29:23;;;;;;;;;;;22.60;39.10;;;;;;5117074;27;19920;-67
2023/03/29 10:31:49;;;;;;;;;;;22.50;39.20;;;;;;5083758;28;19920;-67
2023/03/29 10:34:15;;;;;;;;;;;22.50;39.10;;;;;;5118994;27;19942;-67
2023/03/29 10:36:42;;;;;;;;;;;22.60;39.10;;;;;;5081983;28;19925;-72
2023/03/29 10:39:09;;;;;;;;;;;22.60;39.10;;;;;;5087846;28;19932;-72
2023/03/29 10:41:35;;;;;;;;;;;22.60;39.10;;;;;;5083299;28;19920;-68
2023/03/29 10:44:00;;;;;;;;;;;22.60;39.10;;;;;;5090496;28;19931;-71
2023/03/29 10:46:29;;;;;;;;;;;22.60;39.00;;;;;;5089608;28;19935;-69
2023/03/29 10:48:56;;;;;;;;;;;22.70;39.00;;;;;;5098351;28;19927;-68
2023/03/29 10:51:23;;;;;;;;;;;22.80;39.00;;;;;;5101658;28;19920;-67
2023/03/29 10:53:48;;;;;;;;;;;22.80;38.90;;;;;;5103097;28;20219;-76
2023/03/29 10:56:34;;;;;;;;;;;22.80;38.80;;;;;;5099157;28;19935;-75
2023/03/29 11:01:47;;;;;;;;;;;22.60;39.00;;;;;;5098463;27;19934;-76
2023/03/29 11:07:21;;;;;;;;;;;22.50;39.20;;;;;;5104292;27;19920;-70
2023/03/29 11:09:51;;;;;;;;;;;22.50;39.30;;;;;;5119276;27;20006;-70
2023/03/29 11:12:23;;;;;;;;;;;22.40;39.40;;;;;;5087002;28;19928;-65
2023/03/29 11:14:54;;;;;;;;;;;22.40;39.40;;;;;;5080263;28;19931;-70
2023/03/29 11:22:46;;;;;;;;;;;22.50;39.30;;;;;;5102397;27;19924;-74
2023/03/29 11:25:32;;;;;;;;;;;22.60;39.20;;;;;;5084710;28;19920;-72
2023/03/29 11:28:17;;;;;;;;;;;22.70;39.20;;;;;;5116840;27;19935;-72
2023/03/29 11:30:47;;;;;;;;;;;22.70;39.00;;;;;;5110219;28;19931;-73
2023/03/29 11:33:19;;;;;;;;;;;22.70;38.90;;;;;;5079753;28;20339;-68
2023/03/29 11:36:05;;;;;;;;;;;22.80;39.10;;;;;;5074940;28;19966;-69
2023/03/29 11:41:16;;;;;;;;;;;22.70;39.00;;;;;;5107177;27;20370;-68
2023/03/29 11:43:46;;;;;;;;;;;22.50;39.00;;;;;;5112565;28;20006;-69
2023/03/29 11:46:31;;;;;;;;;;;22.40;39.30;;;;;;5107096;28;19924;-69
2023/03/29 11:49:01;;;;;;;;;;;22.30;39.40;;;;;;5122405;27;19920;-69
2023/03/29 11:51:31;;;;;;;;;;;22.20;39.70;;;;;;5139286;27;20255;-69
2023/03/29 11:54:16;;;;;;;;;;;22.10;39.80;;;;;;5104790;28;20019;-65
2023/03/29 11:56:43;;;;;;;;;;;22.10;39.90;;;;;;5102969;28;20409;-74
2023/03/29 11:59:12;;;;;;;;;;;22.10;39.90;;;;;;5096590;28;20207;-68
2023/03/29 12:01:43;;;;;;;;;;;22.20;39.90;;;;;;5101531;28;19920;-68
2023/03/29 12:04:11;;;;;;;;;;;22.20;39.80;;;;;;5101808;28;19931;-68
2023/03/29 12:06:41;;;;;;;;;;;22.30;39.70;;;;;;5102365;28;19927;-67
2023/03/29 12:11:50;;;;;;;;;;;22.50;39.50;;;;;;5107520;27;19916;-68
2023/03/29 12:14:18;;;;;;;;;;;22.50;39.50;;;;;;5104936;28;19920;-69
2023/03/29 12:16:46;;;;;;;;;;;22.50;39.50;;;;;;5105565;28;19931;-67
2023/03/29 12:19:22;;;;;;;;;;;22.40;39.50;;;;;;5106734;28;20023;-68
2023/03/29 12:21:48;;;;;;;;;;;22.40;39.60;;;;;;5105565;28;19920;-69
2023/03/29 12:24:14;;;;;;;;;;;22.30;39.70;;;;;;5105686;28;19943;-75
2023/03/29 12:32:33;;;;;;;;;;;22.10;40.00;;;;;;5106277;27;19922;-65
2023/03/29 12:37:53;;;;;;;;;;;21.80;40.60;;;;;;5101866;27;19917;-66
2023/03/29 12:40:21;;;;;;;;;;;21.60;41.00;;;;;;5085272;28;20007;-67
2023/03/29 12:42:50;;;;;;;;;;;21.40;41.20;;;;;;5100655;28;19928;-65
2023/03/29 12:45:20;;;;;;;;;;;21.30;41.50;;;;;;5121400;28;20007;-65
2023/03/29 12:47:47;;;;;;;;;;;21.20;41.70;;;;;;5086993;28;20050;-70
2023/03/29 12:50:21;;;;;;;;;;;21.10;41.90;;;;;;5104178;28;19978;-72
2023/03/29 12:52:46;;;;;;;;;;;21.00;42.30;;;;;;5103808;28;19920;-73
2023/03/29 12:55:19;;;;;;;;;;;20.90;42.40;;;;;;5087947;28;19951;-72
2023/03/29 12:58:01;;;;;;;;;;;20.80;42.40;;;;;;5102423;28;19966;-72
2023/03/29 13:00:32;;;;;;;;;;;20.70;42.80;;;;;;5083499;28;20340;-70
2023/03/29 13:02:59;;;;;;;;;;;20.60;43.00;;;;;;5086171;28;19960;-69
2023/03/29 13:05:28;;;;;;;;;;;20.50;43.10;;;;;;5087068;28;19962;-70
2023/03/29 13:07:54;;;;;;;;;;;20.40;43.40;;;;;;5086504;28;19982;-70
2023/03/29 13:10:29;;;;;;;;;;;20.30;43.70;;;;;;5087878;28;19920;-70
2023/03/29 13:12:55;;;;;;;;;;;20.30;43.90;;;;;;5087786;28;20434;-69
2023/03/29 13:15:21;;;;;;;;;;;20.20;44.00;;;;;;5088618;28;19921;-70
2023/03/29 13:17:55;;;;;;;;;;;20.10;44.20;;;;;;5087189;28;19921;-71
2023/03/29 13:23:37;;;;;;;;;;;20.00;44.40;;;;;;5110170;27;19912;-70
2023/03/29 13:28:53;;;;;;;;;;;20.00;44.80;;;;;;5109366;27;19913;-69
2023/03/29 13:36:52;;;;;;;;;;;19.80;45.10;;;;;;5109045;27;20296;-69
2023/03/29 13:39:20;;;;;;;;;;;19.80;45.20;;;;;;5106666;28;19927;-66
2023/03/29 13:41:49;;;;;;;;;;;19.80;45.30;;;;;;5106164;28;19920;-69
2023/03/29 13:44:24;;;;;;;;;;;19.80;45.20;;;;;;5106920;28;20011;-70
2023/03/29 13:47:00;;;;;;;;;;;19.80;45.30;;;;;;5106529;28;20002;-69
2023/03/29 13:49:28;;;;;;;;;;;19.80;45.50;;;;;;5089586;28;19920;-65
2023/03/29 13:52:14;;;;;;;;;;;19.70;45.60;;;;;;5109059;28;19943;-68
2023/03/29 13:54:42;;;;;;;;;;;19.70;45.40;;;;;;5106706;28;20367;-64
2023/03/29 13:57:17;;;;;;;;;;;19.70;45.60;;;;;;5107057;28;19920;-71
2023/03/29 14:00:06;;;;;;;;;;;19.70;46.20;;;;;;5105932;28;19920;-72
2023/03/29 14:02:35;;;;;;;;;;;19.70;45.90;;;;;;5107925;28;19924;-72
2023/03/29 14:05:03;;;;;;;;;;;19.70;45.90;;;;;;5108362;28;19927;-72
2023/03/29 14:07:30;;;;;;;;;;;19.70;45.90;;;;;;5108192;28;19927;-72
2023/03/29 14:09:57;;;;;;;;;;;19.70;45.80;;;;;;5108473;28;19920;-72
2023/03/29 14:12:23;;;;;;;;;;;19.70;45.90;;;;;;5108333;28;19920;-72
2023/03/29 14:14:49;;;;;;;;;;;19.60;45.80;;;;;;5107976;28;19931;-72
2023/03/29 14:17:20;;;;;;;;;;;19.60;45.80;;;;;;5108279;28;20019;-72
2023/03/29 14:19:46;;;;;;;;;;;19.60;45.80;;;;;;5108457;28;20012;-73
2023/03/29 14:22:14;;;;;;;;;;;19.60;45.90;;;;;;5108120;28;20378;-72
2023/03/29 14:24:46;;;;;;;;;;;19.60;45.90;;;;;;5109480;28;19931;-72
2023/03/29 14:27:13;;;;;;;;;;;19.60;45.80;;;;;;5108237;28;19920;-72
2023/03/29 14:29:38;;;;;;;;;;;19.60;45.80;;;;;;5107704;28;19920;-72
2023/03/29 14:32:09;;;;;;;;;;;19.50;45.80;;;;;;5107419;28;19920;-72
2023/03/29 14:34:35;;;;;;;;;;;19.50;45.90;;;;;;5107175;28;19971;-72
2023/03/29 14:37:00;;;;;;;;;;;19.50;45.90;;;;;;5108814;28;19959;-72
2023/03/29 14:39:26;;;;;;;;;;;19.40;45.80;;;;;;5108758;28;19926;-72
2023/03/29 14:41:52;;;;;;;;;;;19.40;45.90;;;;;;5107727;28;19924;-71
2023/03/29 14:44:20;;;;;;;;;;;19.40;46.00;;;;;;5107425;28;19920;-72
2023/03/29 14:46:46;;;;;;;;;;;19.40;46.00;;;;;;5102761;28;20015;-72
2023/03/29 14:49:14;;;;;;;;;;;19.40;46.00;;;;;;5094128;28;20010;-72
2023/03/29 14:51:40;;;;;;;;;;;19.40;46.00;;;;;;5095367;28;19923;-72
2023/03/29 14:54:06;;;;;;;;;;;19.40;46.10;;;;;;5093802;28;19920;-72
2023/03/29 14:56:32;;;;;;;;;;;19.30;46.10;;;;;;5093770;28;19992;-71
2023/03/29 14:58:57;;;;;;;;;;;19.30;46.10;;;;;;5094152;28;19924;-71
2023/03/29 15:01:24;;;;;;;;;;;19.30;46.10;;;;;;5093761;28;20387;-72
2023/03/29 15:04:06;;;;;;;;;;;19.30;46.20;;;;;;5093711;28;19920;-72
2023/03/29 15:06:36;;;;;;;;;;;19.30;46.20;;;;;;5093849;28;19955;-72
2023/03/29 15:09:03;;;;;;;;;;;19.30;46.30;;;;;;5093654;28;19920;-72
2023/03/29 15:11:29;;;;;;;;;;;19.20;46.20;;;;;;5094530;28;20023;-72
2023/03/29 15:14:00;;;;;;;;;;;19.20;46.30;;;;;;5093300;28;19968;-72
2023/03/29 15:16:26;;;;;;;;;;;19.20;46.40;;;;;;5093261;28;19924;-72
2023/03/29 15:18:52;;;;;;;;;;;19.20;46.40;;;;;;5093482;28;19920;-73
2023/03/29 15:21:19;;;;;;;;;;;19.20;46.40;;;;;;5093786;28;19964;-73
2023/03/29 15:23:46;;;;;;;;;;;19.10;46.40;;;;;;5093453;28;20191;-72
2023/03/29 15:29:01;;;;;;;;;;;19.10;46.40;;;;;;5110311;27;19933;-72
2023/03/29 15:31:35;;;;;;;;;;;19.10;46.40;;;;;;5108801;28;20367;-72